^^

Weather Underground History

Daily Summary for February 17, 2019 Units:  Metric    English   Both
Daily Weekly Monthly Yearly
  High: Low: Average:
Temperature: 17 °C 8 °C 11.7 °C
Dew Point: 12 °C 6 °C 8.1 °C
Humidity: 90% 59% 79%
Wind Speed: 15km/h 1km/h 6.2km/h
Wind Gust: 29km/h - -
Wind- - ENE
Pressure: 1016.1 hPa 1007.2 hPa -
Precipitation: 0.0 mm    
 
 
Tabular Data for February 17, 2019
Time Temperature Dew Point Pressure Wind Wind Speed Wind Gust Humidity Rainfall Rate (Hourly) solar
00:04 8 °C 6 °C 1016.1 hPa ENE 3 km/h 11 km/h 81% 0.0 mm 0 W/m2
00:09 8 °C 6 °C 1016.1 hPa NE 3 km/h 8 km/h 81% 0.0 mm 0 W/m2
00:14 8 °C 6 °C 1016.0 hPa ENE 3 km/h 11 km/h 82% 0.0 mm 0 W/m2
00:19 8 °C 6 °C 1016.1 hPa NE 6 km/h 21 km/h 82% 0.0 mm 0 W/m2
00:24 8 °C 6 °C 1016.0 hPa ENE 4 km/h 21 km/h 83% 0.0 mm 0 W/m2
00:29 8 °C 6 °C 1016.0 hPa ENE 3 km/h 8 km/h 83% 0.0 mm 0 W/m2
00:34 8 °C 6 °C 1015.9 hPa ENE 3 km/h 10 km/h 83% 0.0 mm 0 W/m2
00:39 8 °C 6 °C 1015.8 hPa NE 2 km/h 10 km/h 83% 0.0 mm 0 W/m2
00:44 8 °C 6 °C 1015.8 hPa ENE 4 km/h 13 km/h 83% 0.0 mm 0 W/m2
00:49 8 °C 6 °C 1015.7 hPa NE 3 km/h 13 km/h 84% 0.0 mm 0 W/m2
00:54 8 °C 6 °C 1015.6 hPa NE 3 km/h 10 km/h 84% 0.0 mm 0 W/m2
00:59 8 °C 6 °C 1015.6 hPa ENE 3 km/h 11 km/h 85% 0.0 mm 0 W/m2
01:04 8 °C 6 °C 1015.5 hPa ENE 1 km/h 6 km/h 85% 0.0 mm 0 W/m2
01:09 8 °C 6 °C 1015.4 hPa NE 3 km/h 10 km/h 85% 0.0 mm 0 W/m2
01:14 8 °C 6 °C 1015.4 hPa NE 4 km/h 14 km/h 85% 0.0 mm 0 W/m2
01:19 8 °C 6 °C 1015.3 hPa ENE 3 km/h 8 km/h 85% 0.0 mm 0 W/m2
01:24 8 °C 6 °C 1015.2 hPa ENE 4 km/h 10 km/h 85% 0.0 mm 0 W/m2
01:29 8 °C 6 °C 1015.2 hPa ENE 2 km/h 8 km/h 85% 0.0 mm 0 W/m2
01:34 8 °C 7 °C 1015.2 hPa NE 5 km/h 11 km/h 86% 0.0 mm 0 W/m2
01:39 8 °C 6 °C 1015.1 hPa NE 3 km/h 10 km/h 86% 0.0 mm 0 W/m2
01:44 8 °C 6 °C 1015.0 hPa NE 5 km/h 13 km/h 85% 0.0 mm 0 W/m2
01:49 8 °C 6 °C 1014.9 hPa NE 3 km/h 13 km/h 86% 0.0 mm 0 W/m2
01:54 8 °C 6 °C 1014.7 hPa ENE 2 km/h 8 km/h 86% 0.0 mm 0 W/m2
01:59 9 °C 7 °C 1014.7 hPa NE 5 km/h 13 km/h 86% 0.0 mm 0 W/m2
02:04 9 °C 7 °C 1014.7 hPa NE 5 km/h 13 km/h 86% 0.0 mm 0 W/m2
02:09 9 °C 6 °C 1014.7 hPa NE 4 km/h 13 km/h 85% 0.0 mm 0 W/m2
02:14 9 °C 6 °C 1014.6 hPa ENE 3 km/h 11 km/h 85% 0.0 mm 0 W/m2
02:19 9 °C 6 °C 1014.6 hPa ENE 5 km/h 14 km/h 85% 0.0 mm 0 W/m2
02:24 9 °C 6 °C 1014.5 hPa ENE 5 km/h 14 km/h 85% 0.0 mm 0 W/m2
02:29 9 °C 7 °C 1014.5 hPa NE 5 km/h 14 km/h 85% 0.0 mm 0 W/m2
02:34 9 °C 7 °C 1014.3 hPa NE 6 km/h 14 km/h 85% 0.0 mm 0 W/m2
02:39 9 °C 7 °C 1014.2 hPa NE 6 km/h 13 km/h 85% 0.0 mm 0 W/m2
02:44 9 °C 7 °C 1014.1 hPa NE 6 km/h 13 km/h 85% 0.0 mm 0 W/m2
02:49 9 °C 7 °C 1014.0 hPa NE 5 km/h 11 km/h 85% 0.0 mm 0 W/m2
02:54 9 °C 7 °C 1014.0 hPa ENE 5 km/h 13 km/h 85% 0.0 mm 0 W/m2
02:59 9 °C 7 °C 1014.0 hPa ENE 3 km/h 8 km/h 85% 0.0 mm 0 W/m2
03:04 9 °C 7 °C 1014.0 hPa NE 5 km/h 13 km/h 85% 0.0 mm 0 W/m2
03:09 9 °C 7 °C 1013.9 hPa NE 5 km/h 10 km/h 85% 0.0 mm 0 W/m2
03:14 9 °C 7 °C 1013.9 hPa ENE 3 km/h 10 km/h 85% 0.0 mm 0 W/m2
03:19 9 °C 7 °C 1013.8 hPa NE 4 km/h 11 km/h 85% 0.0 mm 0 W/m2
03:24 9 °C 7 °C 1013.8 hPa NE 4 km/h 13 km/h 86% 0.0 mm 0 W/m2
03:29 9 °C 7 °C 1013.8 hPa NE 6 km/h 18 km/h 86% 0.0 mm 0 W/m2
03:34 9 °C 7 °C 1013.8 hPa ENE 4 km/h 13 km/h 86% 0.0 mm 0 W/m2
03:39 9 °C 7 °C 1013.8 hPa NE 6 km/h 14 km/h 86% 0.0 mm 0 W/m2
03:44 9 °C 7 °C 1013.7 hPa NE 4 km/h 11 km/h 87% 0.0 mm 0 W/m2
03:49 9 °C 7 °C 1013.7 hPa NE 7 km/h 14 km/h 87% 0.0 mm 0 W/m2
03:54 8 °C 7 °C 1013.7 hPa NE 5 km/h 19 km/h 87% 0.0 mm 0 W/m2
03:59 8 °C 7 °C 1013.6 hPa NNE 4 km/h 16 km/h 88% 0.0 mm 0 W/m2
04:04 8 °C 7 °C 1013.5 hPa NE 4 km/h 13 km/h 88% 0.0 mm 0 W/m2
04:09 8 °C 7 °C 1013.5 hPa NE 5 km/h 13 km/h 88% 0.0 mm 0 W/m2
04:14 8 °C 7 °C 1013.5 hPa NE 5 km/h 13 km/h 88% 0.0 mm 0 W/m2
04:19 8 °C 7 °C 1013.4 hPa NE 5 km/h 11 km/h 89% 0.0 mm 0 W/m2
04:24 8 °C 7 °C 1013.4 hPa NE 3 km/h 11 km/h 89% 0.0 mm 0 W/m2
04:29 8 °C 7 °C 1013.3 hPa ENE 4 km/h 13 km/h 89% 0.0 mm 0 W/m2
04:34 8 °C 7 °C 1013.3 hPa NE 4 km/h 11 km/h 89% 0.0 mm 0 W/m2
04:39 8 °C 7 °C 1013.3 hPa NE 6 km/h 13 km/h 89% 0.0 mm 0 W/m2
04:44 8 °C 7 °C 1013.2 hPa NNE 5 km/h 18 km/h 90% 0.0 mm 0 W/m2
04:49 8 °C 7 °C 1013.2 hPa NE 6 km/h 18 km/h 90% 0.0 mm 0 W/m2
04:54 8 °C 7 °C 1013.2 hPa NE 4 km/h 16 km/h 90% 0.0 mm 0 W/m2
04:59 8 °C 7 °C 1013.1 hPa NE 5 km/h 14 km/h 90% 0.0 mm 0 W/m2
05:04 8 °C 7 °C 1013.0 hPa NE 6 km/h 11 km/h 90% 0.0 mm 0 W/m2
05:09 8 °C 7 °C 1013.0 hPa NNE 7 km/h 16 km/h 90% 0.0 mm 0 W/m2
05:14 8 °C 7 °C 1013.0 hPa NE 4 km/h 16 km/h 90% 0.0 mm 0 W/m2
05:19 8 °C 7 °C 1013.0 hPa NE 6 km/h 13 km/h 90% 0.0 mm 0 W/m2
05:24 8 °C 7 °C 1013.0 hPa NE 6 km/h 13 km/h 89% 0.0 mm 0 W/m2
05:29 8 °C 7 °C 1013.0 hPa NE 5 km/h 14 km/h 89% 0.0 mm 0 W/m2
05:34 8 °C 7 °C 1013.0 hPa NNE 4 km/h 18 km/h 89% 0.0 mm 0 W/m2
05:39 8 °C 7 °C 1012.9 hPa NE 6 km/h 16 km/h 89% 0.0 mm 5 W/m2
05:44 8 °C 7 °C 1012.8 hPa NE 6 km/h 14 km/h 89% 0.0 mm 7 W/m2
05:49 8 °C 7 °C 1012.8 hPa NNE 6 km/h 14 km/h 89% 0.0 mm 9 W/m2
05:54 8 °C 7 °C 1012.7 hPa NE 5 km/h 11 km/h 89% 0.0 mm 12 W/m2
05:59 8 °C 7 °C 1012.7 hPa NNE 6 km/h 16 km/h 89% 0.0 mm 12 W/m2
06:04 8 °C 7 °C 1012.7 hPa NE 7 km/h 18 km/h 89% 0.0 mm 11 W/m2
06:09 8 °C 7 °C 1012.7 hPa NE 4 km/h 11 km/h 89% 0.0 mm 30 W/m2
06:14 8 °C 7 °C 1012.6 hPa NE 6 km/h 14 km/h 89% 0.0 mm 46 W/m2
06:19 8 °C 7 °C 1012.7 hPa NNE 5 km/h 14 km/h 89% 0.0 mm 69 W/m2
06:24 8 °C 7 °C 1012.6 hPa NNE 5 km/h 13 km/h 88% 0.0 mm 69 W/m2
06:29 8 °C 7 °C 1012.6 hPa NE 6 km/h 14 km/h 88% 0.0 mm 54 W/m2
06:34 8 °C 7 °C 1012.6 hPa NE 7 km/h 14 km/h 88% 0.0 mm 46 W/m2
06:39 8 °C 7 °C 1012.6 hPa NE 6 km/h 13 km/h 87% 0.0 mm 35 W/m2
06:44 8 °C 6 °C 1012.6 hPa NE 6 km/h 11 km/h 87% 0.0 mm 35 W/m2
06:49 8 °C 7 °C 1012.4 hPa NNE 5 km/h 13 km/h 87% 0.0 mm 35 W/m2
06:54 8 °C 7 °C 1012.3 hPa NE 5 km/h 11 km/h 87% 0.0 mm 42 W/m2
06:59 8 °C 6 °C 1012.2 hPa NNE 5 km/h 13 km/h 86% 0.0 mm 35 W/m2
07:04 8 °C 6 °C 1012.2 hPa NNE 7 km/h 16 km/h 86% 0.0 mm 35 W/m2
07:09 8 °C 6 °C 1012.1 hPa NNE 7 km/h 21 km/h 86% 0.0 mm 90 W/m2
07:14 9 °C 6 °C 1012.1 hPa NNE 7 km/h 21 km/h 85% 0.0 mm 100 W/m2
07:19 9 °C 6 °C 1012.1 hPa NNE 6 km/h 16 km/h 85% 0.0 mm 95 W/m2
07:24 9 °C 7 °C 1012.1 hPa NE 8 km/h 16 km/h 85% 0.0 mm 91 W/m2
07:29 9 °C 7 °C 1012.1 hPa NE 5 km/h 16 km/h 85% 0.0 mm 104 W/m2
07:34 9 °C 7 °C 1012.0 hPa NE 7 km/h 21 km/h 85% 0.0 mm 104 W/m2
07:39 9 °C 7 °C 1012.0 hPa NE 7 km/h 21 km/h 84% 0.0 mm 62 W/m2
07:44 9 °C 7 °C 1011.9 hPa NNE 5 km/h 11 km/h 84% 0.0 mm 98 W/m2
07:49 9 °C 7 °C 1011.9 hPa NE 7 km/h 16 km/h 84% 0.0 mm 125 W/m2
07:54 9 °C 7 °C 1011.9 hPa NE 6 km/h 18 km/h 83% 0.0 mm 125 W/m2
07:59 9 °C 7 °C 1011.9 hPa NE 4 km/h 13 km/h 83% 0.0 mm 111 W/m2
08:04 9 °C 7 °C 1011.9 hPa NE 3 km/h 11 km/h 83% 0.0 mm 116 W/m2
08:09 9 °C 7 °C 1011.9 hPa NE 6 km/h 14 km/h 82% 0.0 mm 100 W/m2
08:14 9 °C 7 °C 1011.9 hPa NE 7 km/h 14 km/h 82% 0.0 mm 76 W/m2
08:19 9 °C 7 °C 1011.9 hPa NE 5 km/h 11 km/h 82% 0.0 mm 90 W/m2
08:24 9 °C 7 °C 1011.9 hPa NE 5 km/h 16 km/h 82% 0.0 mm 98 W/m2
08:29 9 °C 7 °C 1011.8 hPa NE 7 km/h 24 km/h 82% 0.0 mm 100 W/m2
08:34 9 °C 7 °C 1011.7 hPa NE 7 km/h 18 km/h 82% 0.0 mm 97 W/m2
08:39 9 °C 7 °C 1011.7 hPa NE 7 km/h 13 km/h 83% 0.0 mm 113 W/m2
08:44 9 °C 7 °C 1011.6 hPa NE 5 km/h 18 km/h 84% 0.0 mm 95 W/m2
08:49 9 °C 7 °C 1011.6 hPa ENE 6 km/h 18 km/h 84% 0.0 mm 88 W/m2
08:54 9 °C 7 °C 1011.5 hPa NE 4 km/h 13 km/h 85% 0.0 mm 86 W/m2
08:59 9 °C 7 °C 1011.6 hPa NNE 8 km/h 16 km/h 85% 0.0 mm 83 W/m2
09:04 9 °C 7 °C 1011.5 hPa NE 5 km/h 16 km/h 85% 0.0 mm 70 W/m2
09:09 9 °C 7 °C 1011.5 hPa NNE 5 km/h 16 km/h 86% 0.0 mm 111 W/m2
09:14 9 °C 7 °C 1011.5 hPa NE 4 km/h 10 km/h 86% 0.0 mm 156 W/m2
09:19 9 °C 7 °C 1011.4 hPa NNE 6 km/h 19 km/h 86% 0.0 mm 199 W/m2
09:24 9 °C 7 °C 1011.4 hPa NNE 4 km/h 14 km/h 86% 0.0 mm 197 W/m2
09:29 9 °C 8 °C 1011.4 hPa NE 8 km/h 16 km/h 86% 0.0 mm 181 W/m2
09:34 10 °C 8 °C 1011.5 hPa NE 5 km/h 13 km/h 86% 0.0 mm 211 W/m2
09:39 10 °C 8 °C 1011.4 hPa NE 5 km/h 16 km/h 86% 0.0 mm 276 W/m2
09:44 10 °C 8 °C 1011.3 hPa NE 5 km/h 18 km/h 86% 0.0 mm 271 W/m2
09:49 11 °C 8 °C 1011.3 hPa NE 5 km/h 21 km/h 86% 0.0 mm 251 W/m2
09:54 11 °C 8 °C 1011.2 hPa ENE 5 km/h 18 km/h 85% 0.0 mm 230 W/m2
09:59 11 °C 8 °C 1011.1 hPa NE 5 km/h 13 km/h 85% 0.0 mm 239 W/m2
10:04 11 °C 8 °C 1011.1 hPa NE 5 km/h 13 km/h 85% 0.0 mm 265 W/m2
10:09 11 °C 8 °C 1011.0 hPa NE 7 km/h 18 km/h 84% 0.0 mm 320 W/m2
10:14 11 °C 8 °C 1011.0 hPa NE 5 km/h 18 km/h 84% 0.0 mm 327 W/m2
10:19 11 °C 8 °C 1010.9 hPa NE 7 km/h 16 km/h 84% 0.0 mm 427 W/m2
10:24 11 °C 9 °C 1010.8 hPa NE 7 km/h 18 km/h 84% 0.0 mm 466 W/m2
10:29 12 °C 9 °C 1010.7 hPa NE 6 km/h 18 km/h 84% 0.0 mm 436 W/m2
10:34 12 °C 9 °C 1010.6 hPa NE 10 km/h 21 km/h 83% 0.0 mm 403 W/m2
10:39 12 °C 9 °C 1010.5 hPa NE 8 km/h 21 km/h 82% 0.0 mm 401 W/m2
10:44 12 °C 9 °C 1010.5 hPa ENE 7 km/h 16 km/h 82% 0.0 mm 381 W/m2
10:49 12 °C 9 °C 1010.5 hPa ENE 8 km/h 16 km/h 82% 0.0 mm 415 W/m2
10:54 12 °C 9 °C 1010.4 hPa ENE 8 km/h 19 km/h 82% 0.0 mm 439 W/m2
10:59 13 °C 9 °C 1010.4 hPa ENE 7 km/h 14 km/h 82% 0.0 mm 475 W/m2
11:04 13 °C 10 °C 1010.3 hPa ENE 9 km/h 23 km/h 81% 0.0 mm 650 W/m2
11:09 13 °C 10 °C 1010.3 hPa ENE 9 km/h 19 km/h 81% 0.0 mm 650 W/m2
11:14 13 °C 10 °C 1010.2 hPa ENE 9 km/h 19 km/h 81% 0.0 mm 624 W/m2
11:19 14 °C 10 °C 1010.2 hPa ENE 10 km/h 24 km/h 79% 0.0 mm 624 W/m2
11:24 14 °C 10 °C 1010.2 hPa ENE 11 km/h 24 km/h 79% 0.0 mm 580 W/m2
11:29 14 °C 11 °C 1010.2 hPa ENE 9 km/h 23 km/h 78% 0.0 mm 612 W/m2
11:34 14 °C 11 °C 1010.2 hPa NE 8 km/h 18 km/h 78% 0.0 mm 612 W/m2
11:39 14 °C 11 °C 1010.1 hPa East 9 km/h 19 km/h 77% 0.0 mm 575 W/m2
11:44 14 °C 10 °C 1010.1 hPa ENE 10 km/h 24 km/h 77% 0.0 mm 543 W/m2
11:49 14 °C 10 °C 1010.1 hPa East 13 km/h 24 km/h 77% 0.0 mm 605 W/m2
11:54 14 °C 10 °C 1010.0 hPa East 10 km/h 24 km/h 76% 0.0 mm 622 W/m2
11:59 14 °C 11 °C 1009.9 hPa ENE 10 km/h 24 km/h 77% 0.0 mm 673 W/m2
12:04 14 °C 11 °C 1009.9 hPa East 9 km/h 24 km/h 76% 0.0 mm 849 W/m2
12:09 15 °C 11 °C 1009.7 hPa East 10 km/h 23 km/h 76% 0.0 mm 838 W/m2
12:14 15 °C 11 °C 1009.6 hPa East 9 km/h 21 km/h 76% 0.0 mm 884 W/m2
12:19 16 °C 11 °C 1009.6 hPa East 8 km/h 21 km/h 75% 0.0 mm 795 W/m2
12:24 16 °C 11 °C 1009.7 hPa East 9 km/h 19 km/h 75% 0.0 mm 954 W/m2
12:29 16 °C 11 °C 1009.6 hPa ENE 9 km/h 19 km/h 74% 0.0 mm 954 W/m2
12:34 16 °C 11 °C 1009.6 hPa ENE 9 km/h 26 km/h 75% 0.0 mm 912 W/m2
12:39 16 °C 11 °C 1009.6 hPa East 11 km/h 26 km/h 73% 0.0 mm 918 W/m2
12:44 16 °C 11 °C 1009.5 hPa East 12 km/h 27 km/h 73% 0.0 mm 981 W/m2
12:49 16 °C 11 °C 1009.5 hPa East 10 km/h 26 km/h 72% 0.0 mm 981 W/m2
12:54 16 °C 11 °C 1009.5 hPa East 10 km/h 18 km/h 73% 0.0 mm 1053 W/m2
12:59 16 °C 11 °C 1009.4 hPa ENE 7 km/h 21 km/h 72% 0.0 mm 543 W/m2
13:04 16 °C 11 °C 1009.4 hPa ENE 6 km/h 16 km/h 73% 0.0 mm 543 W/m2
13:09 16 °C 12 °C 1009.4 hPa East 9 km/h 18 km/h 73% 0.0 mm 1049 W/m2
13:14 16 °C 11 °C 1009.5 hPa East 10 km/h 21 km/h 71% 0.0 mm 278 W/m2
13:19 16 °C 11 °C 1009.4 hPa East 11 km/h 24 km/h 70% 0.0 mm 336 W/m2
13:24 16 °C 11 °C 1009.5 hPa East 12 km/h 26 km/h 70% 0.0 mm 981 W/m2
13:29 16 °C 11 °C 1009.5 hPa ESE 15 km/h 26 km/h 71% 0.0 mm 963 W/m2
13:34 16 °C 10 °C 1009.5 hPa East 12 km/h 26 km/h 68% 0.0 mm 1039 W/m2
13:39 16 °C 11 °C 1009.4 hPa East 10 km/h 24 km/h 70% 0.0 mm 1039 W/m2
13:44 17 °C 11 °C 1009.4 hPa East 13 km/h 24 km/h 67% 0.0 mm 993 W/m2
13:49 17 °C 11 °C 1009.3 hPa East 10 km/h 23 km/h 67% 0.0 mm 1018 W/m2
13:54 17 °C 11 °C 1009.3 hPa East 9 km/h 23 km/h 67% 0.0 mm 986 W/m2
13:59 17 °C 10 °C 1009.2 hPa ENE 9 km/h 26 km/h 64% 0.0 mm 951 W/m2
14:04 16 °C 9 °C 1009.2 hPa East 12 km/h 27 km/h 64% 0.0 mm 972 W/m2
14:09 17 °C 10 °C 1009.1 hPa East 12 km/h 27 km/h 66% 0.0 mm 998 W/m2
14:14 17 °C 10 °C 1009.0 hPa ENE 9 km/h 23 km/h 64% 0.0 mm 332 W/m2
14:19 17 °C 9 °C 1009.0 hPa East 10 km/h 23 km/h 64% 0.0 mm 914 W/m2
14:24 17 °C 11 °C 1009.0 hPa East 8 km/h 23 km/h 66% 0.0 mm 939 W/m2
14:29 17 °C 10 °C 1009.0 hPa East 10 km/h 21 km/h 65% 0.0 mm 874 W/m2
14:34 17 °C 11 °C 1009.0 hPa East 9 km/h 21 km/h 65% 0.0 mm 861 W/m2
14:39 17 °C 10 °C 1009.0 hPa East 10 km/h 23 km/h 63% 0.0 mm 926 W/m2
14:44 17 °C 11 °C 1009.0 hPa East 10 km/h 26 km/h 64% 0.0 mm 904 W/m2
14:49 17 °C 10 °C 1009.0 hPa East 10 km/h 21 km/h 63% 0.0 mm 911 W/m2
14:54 17 °C 10 °C 1009.0 hPa East 13 km/h 24 km/h 63% 0.0 mm 958 W/m2
14:59 17 °C 9 °C 1009.0 hPa East 11 km/h 23 km/h 62% 0.0 mm 904 W/m2
15:04 17 °C 9 °C 1009.0 hPa ESE 13 km/h 26 km/h 61% 0.0 mm 909 W/m2
15:09 17 °C 10 °C 1008.9 hPa ESE 13 km/h 29 km/h 62% 0.0 mm 958 W/m2
15:14 17 °C 9 °C 1008.9 hPa East 12 km/h 29 km/h 61% 0.0 mm 279 W/m2
15:19 17 °C 9 °C 1008.9 hPa East 10 km/h 23 km/h 62% 0.0 mm 489 W/m2
15:24 17 °C 10 °C 1008.8 hPa East 9 km/h 21 km/h 64% 0.0 mm 434 W/m2
15:29 16 °C 9 °C 1008.8 hPa East 7 km/h 16 km/h 63% 0.0 mm 1002 W/m2
15:34 17 °C 10 °C 1008.7 hPa East 9 km/h 16 km/h 64% 0.0 mm 1016 W/m2
15:39 17 °C 9 °C 1008.6 hPa East 8 km/h 16 km/h 60% 0.0 mm 503 W/m2
15:44 17 °C 9 °C 1008.5 hPa ENE 9 km/h 21 km/h 60% 0.0 mm 471 W/m2
15:49 17 °C 9 °C 1008.6 hPa East 7 km/h 18 km/h 59% 0.0 mm 392 W/m2
15:54 17 °C 8 °C 1008.6 hPa ENE 8 km/h 18 km/h 59% 0.0 mm 357 W/m2
15:59 17 °C 9 °C 1008.6 hPa East 6 km/h 11 km/h 62% 0.0 mm 336 W/m2
16:04 16 °C 9 °C 1008.5 hPa East 11 km/h 19 km/h 62% 0.0 mm 250 W/m2
16:09 16 °C 9 °C 1008.4 hPa East 8 km/h 19 km/h 63% 0.0 mm 264 W/m2
16:14 16 °C 9 °C 1008.4 hPa ESE 11 km/h 19 km/h 65% 0.0 mm 264 W/m2
16:19 16 °C 9 °C 1008.4 hPa ESE 14 km/h 21 km/h 67% 0.0 mm 264 W/m2
16:24 16 °C 9 °C 1008.4 hPa ESE 12 km/h 23 km/h 68% 0.0 mm 271 W/m2
16:29 16 °C 9 °C 1008.3 hPa East 9 km/h 18 km/h 67% 0.0 mm 271 W/m2
16:34 16 °C 9 °C 1008.3 hPa East 6 km/h 18 km/h 67% 0.0 mm 350 W/m2
16:39 16 °C 9 °C 1008.3 hPa East 10 km/h 19 km/h 64% 0.0 mm 418 W/m2
16:44 16 °C 8 °C 1008.3 hPa ESE 10 km/h 19 km/h 63% 0.0 mm 338 W/m2
16:49 16 °C 9 °C 1008.2 hPa East 6 km/h 19 km/h 65% 0.0 mm 274 W/m2
16:54 16 °C 9 °C 1008.2 hPa East 7 km/h 13 km/h 65% 0.0 mm 239 W/m2
16:59 16 °C 9 °C 1008.2 hPa East 9 km/h 14 km/h 65% 0.0 mm 239 W/m2
17:04 16 °C 9 °C 1008.1 hPa ESE 7 km/h 14 km/h 66% 0.0 mm 260 W/m2
17:09 16 °C 9 °C 1008.1 hPa ESE 6 km/h 11 km/h 66% 0.0 mm 232 W/m2
17:14 16 °C 9 °C 1008.0 hPa East 5 km/h 11 km/h 67% 0.0 mm 151 W/m2
17:19 16 °C 9 °C 1008.0 hPa ENE 4 km/h 10 km/h 67% 0.0 mm 128 W/m2
17:24 15 °C 9 °C 1008.0 hPa East 6 km/h 11 km/h 67% 0.0 mm 141 W/m2
17:29 15 °C 9 °C 1008.0 hPa East 7 km/h 14 km/h 67% 0.0 mm 135 W/m2
17:34 15 °C 9 °C 1008.0 hPa East 6 km/h 13 km/h 67% 0.0 mm 144 W/m2
17:39 15 °C 9 °C 1008.0 hPa East 10 km/h 21 km/h 67% 0.0 mm 141 W/m2
17:44 15 °C 8 °C 1007.9 hPa ESE 10 km/h 21 km/h 66% 0.0 mm 134 W/m2
17:49 15 °C 8 °C 1007.8 hPa East 8 km/h 13 km/h 66% 0.0 mm 142 W/m2
17:54 14 °C 8 °C 1007.8 hPa East 7 km/h 14 km/h 66% 0.0 mm 142 W/m2
17:59 14 °C 8 °C 1007.7 hPa East 6 km/h 14 km/h 67% 0.0 mm 137 W/m2
18:04 14 °C 8 °C 1007.7 hPa ESE 7 km/h 13 km/h 67% 0.0 mm 91 W/m2
18:09 14 °C 9 °C 1007.6 hPa East 7 km/h 14 km/h 68% 0.0 mm 121 W/m2
18:14 14 °C 9 °C 1007.6 hPa East 6 km/h 18 km/h 68% 0.0 mm 121 W/m2
18:19 14 °C 9 °C 1007.6 hPa ESE 7 km/h 18 km/h 69% 0.0 mm 121 W/m2
18:24 14 °C 9 °C 1007.6 hPa East 5 km/h 11 km/h 69% 0.0 mm 125 W/m2
18:29 14 °C 9 °C 1007.6 hPa ENE 7 km/h 16 km/h 69% 0.0 mm 123 W/m2
18:34 14 °C 8 °C 1007.6 hPa ESE 8 km/h 13 km/h 69% 0.0 mm 111 W/m2
18:39 14 °C 8 °C 1007.6 hPa ESE 8 km/h 11 km/h 69% 0.0 mm 93 W/m2
18:44 14 °C 8 °C 1007.5 hPa ESE 7 km/h 11 km/h 69% 0.0 mm 83 W/m2
18:49 14 °C 8 °C 1007.5 hPa ESE 5 km/h 11 km/h 69% 0.0 mm 79 W/m2
18:54 14 °C 8 °C 1007.5 hPa ESE 7 km/h 11 km/h 70% 0.0 mm 74 W/m2
18:59 14 °C 8 °C 1007.5 hPa East 4 km/h 10 km/h 70% 0.0 mm 70 W/m2
19:04 14 °C 8 °C 1007.4 hPa East 5 km/h 8 km/h 71% 0.0 mm 62 W/m2
19:09 14 °C 8 °C 1007.4 hPa East 6 km/h 11 km/h 71% 0.0 mm 58 W/m2
19:14 13 °C 9 °C 1007.5 hPa East 5 km/h 11 km/h 72% 0.0 mm 53 W/m2
19:19 13 °C 9 °C 1007.5 hPa East 6 km/h 11 km/h 73% 0.0 mm 46 W/m2
19:24 13 °C 9 °C 1007.5 hPa East 5 km/h 11 km/h 73% 0.0 mm 39 W/m2
19:29 13 °C 9 °C 1007.5 hPa East 6 km/h 13 km/h 73% 0.0 mm 33 W/m2
19:34 13 °C 9 °C 1007.4 hPa East 5 km/h 13 km/h 74% 0.0 mm 23 W/m2
19:39 13 °C 9 °C 1007.4 hPa East 7 km/h 10 km/h 75% 0.0 mm 14 W/m2
19:44 13 °C 9 °C 1007.5 hPa East 6 km/h 11 km/h 75% 0.0 mm 19 W/m2
19:49 13 °C 8 °C 1007.5 hPa East 4 km/h 10 km/h 75% 0.0 mm 21 W/m2
19:54 13 °C 8 °C 1007.5 hPa East 4 km/h 8 km/h 75% 0.0 mm 21 W/m2
19:59 13 °C 8 °C 1007.5 hPa ENE 4 km/h 8 km/h 75% 0.0 mm 19 W/m2
20:04 13 °C 8 °C 1007.5 hPa East 3 km/h 10 km/h 76% 0.0 mm 12 W/m2
20:09 13 °C 8 °C 1007.5 hPa East 5 km/h 11 km/h 76% 0.0 mm 11 W/m2
20:14 12 °C 8 °C 1007.5 hPa ENE 4 km/h 11 km/h 76% 0.0 mm 9 W/m2
20:19 12 °C 8 °C 1007.5 hPa East 4 km/h 13 km/h 77% 0.0 mm 5 W/m2
20:24 12 °C 8 °C 1007.5 hPa ENE 4 km/h 13 km/h 77% 0.0 mm 0 W/m2
20:29 12 °C 8 °C 1007.5 hPa ENE 3 km/h 10 km/h 78% 0.0 mm 0 W/m2
20:34 12 °C 8 °C 1007.6 hPa East 3 km/h 11 km/h 78% 0.0 mm 0 W/m2
20:39 12 °C 8 °C 1007.5 hPa East 4 km/h 11 km/h 78% 0.0 mm 0 W/m2
20:44 12 °C 8 °C 1007.6 hPa ESE 3 km/h 11 km/h 79% 0.0 mm 0 W/m2
20:49 12 °C 8 °C 1007.6 hPa NE 4 km/h 11 km/h 78% 0.0 mm 0 W/m2
20:54 12 °C 8 °C 1007.6 hPa NE 3 km/h 13 km/h 79% 0.0 mm 0 W/m2
20:59 12 °C 8 °C 1007.6 hPa NNE 4 km/h 13 km/h 79% 0.0 mm 0 W/m2
21:04 12 °C 8 °C 1007.6 hPa NNE 5 km/h 11 km/h 79% 0.0 mm 0 W/m2
21:09 12 °C 8 °C 1007.6 hPa ENE 5 km/h 11 km/h 79% 0.0 mm 0 W/m2
21:14 12 °C 8 °C 1007.6 hPa NE 6 km/h 16 km/h 79% 0.0 mm 0 W/m2
21:19 12 °C 8 °C 1007.6 hPa NE 4 km/h 13 km/h 79% 0.0 mm 0 W/m2
21:24 12 °C 8 °C 1007.6 hPa ENE 3 km/h 11 km/h 79% 0.0 mm 0 W/m2
21:29 11 °C 8 °C 1007.6 hPa NE 4 km/h 10 km/h 79% 0.0 mm 0 W/m2
21:34 11 °C 8 °C 1007.6 hPa NE 5 km/h 13 km/h 79% 0.0 mm 0 W/m2
21:39 11 °C 8 °C 1007.6 hPa ENE 5 km/h 13 km/h 79% 0.0 mm 0 W/m2
21:44 11 °C 8 °C 1007.6 hPa NE 3 km/h 10 km/h 79% 0.0 mm 0 W/m2
21:49 11 °C 8 °C 1007.5 hPa NE 5 km/h 11 km/h 80% 0.0 mm 0 W/m2
21:54 11 °C 8 °C 1007.5 hPa NE 5 km/h 11 km/h 80% 0.0 mm 0 W/m2
21:59 11 °C 8 °C 1007.5 hPa NE 4 km/h 11 km/h 80% 0.0 mm 0 W/m2
22:04 11 °C 7 °C 1007.5 hPa NE 5 km/h 16 km/h 80% 0.0 mm 0 W/m2
22:09 11 °C 7 °C 1007.4 hPa NE 4 km/h 11 km/h 80% 0.0 mm 0 W/m2
22:14 11 °C 8 °C 1007.4 hPa NE 4 km/h 11 km/h 81% 0.0 mm 0 W/m2
22:19 11 °C 8 °C 1007.4 hPa NE 2 km/h 11 km/h 81% 0.0 mm 0 W/m2
22:24 11 °C 8 °C 1007.4 hPa NE 4 km/h 13 km/h 82% 0.0 mm 0 W/m2
22:29 11 °C 7 °C 1007.4 hPa ENE 2 km/h 11 km/h 82% 0.0 mm 0 W/m2
22:34 11 °C 8 °C 1007.4 hPa ENE 4 km/h 11 km/h 82% 0.0 mm 0 W/m2
22:39 11 °C 8 °C 1007.4 hPa NE 2 km/h 11 km/h 83% 0.0 mm 0 W/m2
22:44 11 °C 8 °C 1007.4 hPa NE 1 km/h 11 km/h 83% 0.0 mm 0 W/m2
22:49 11 °C 8 °C 1007.4 hPa NE 2 km/h 8 km/h 83% 0.0 mm 0 W/m2
22:54 11 °C 8 °C 1007.4 hPa NE 4 km/h 11 km/h 84% 0.0 mm 0 W/m2
22:59 11 °C 8 °C 1007.5 hPa NE 3 km/h 11 km/h 84% 0.0 mm 0 W/m2
23:04 10 °C 8 °C 1007.5 hPa NNE 5 km/h 13 km/h 84% 0.0 mm 0 W/m2
23:09 10 °C 8 °C 1007.4 hPa East 2 km/h 11 km/h 84% 0.0 mm 0 W/m2
23:14 10 °C 8 °C 1007.3 hPa ENE 2 km/h 8 km/h 84% 0.0 mm 0 W/m2
23:19 10 °C 8 °C 1007.3 hPa NE 2 km/h 6 km/h 84% 0.0 mm 0 W/m2
23:24 10 °C 8 °C 1007.3 hPa NE 2 km/h 10 km/h 84% 0.0 mm 0 W/m2
23:29 10 °C 8 °C 1007.4 hPa ENE 4 km/h 8 km/h 84% 0.0 mm 0 W/m2
23:34 10 °C 8 °C 1007.4 hPa ENE 3 km/h 8 km/h 85% 0.0 mm 0 W/m2
23:39 10 °C 8 °C 1007.3 hPa NE 2 km/h 10 km/h 86% 0.0 mm 0 W/m2
23:44 10 °C 8 °C 1007.3 hPa NE 4 km/h 11 km/h 86% 0.0 mm 0 W/m2
23:49 10 °C 8 °C 1007.3 hPa NE 3 km/h 13 km/h 87% 0.0 mm 0 W/m2
23:54 10 °C 8 °C 1007.2 hPa NE 2 km/h 8 km/h 87% 0.0 mm 0 W/m2
23:59 10 °C 8 °C 1007.2 hPa NE 1 km/h 5 km/h 88% 0.0 mm 0 W/m2
Compliments of Weather Underground - 4.25 mb